Time;durP1;ratioP1;P1;durP2;ratioP2;P2;SDS_P1;SDS_P2;PMS_P1;PMS_P2;Temp;Humidity;BMP_temperature;BMP_pressure;BME280_temperature;BME280_humidity;BME280_pressure;Samples;Min_cycle;Max_cycle;Signal;HPM_P1;HPM_P2
2023/02/20 00:00:33;;;;;;;13.50;5.53;;;;;;;-142.75;100.00;78440.78;4973692;28;19918;-66
2023/02/20 00:02:58;;;;;;;19.00;6.00;;;;;;;-142.75;100.00;78448.66;4973546;28;20505;-67
2023/02/20 00:05:23;;;;;;;;;;;;;;;-142.75;100.00;78425.03;4974196;28;20114;-66
2023/02/20 00:07:49;;;;;;;13.37;5.63;;;;;;;-142.75;100.00;78436.84;4974626;28;19914;-66
2023/02/20 00:10:15;;;;;;;12.33;5.70;;;;;;;-142.75;100.00;78428.97;4972682;28;20074;-66
2023/02/20 00:12:41;;;;;;;14.90;5.47;;;;;;;-142.75;100.00;78438.81;4955772;28;20027;-66
2023/02/20 00:15:07;;;;;;;13.83;5.43;;;;;;;-142.75;100.00;78444.72;4955433;28;20038;-65
2023/02/20 00:17:32;;;;;;;11.50;5.87;;;;;;;-142.75;100.00;78428.97;4955202;28;20043;-65
2023/02/20 00:19:58;;;;;;;;;;;;;;;-142.75;100.00;78428.97;4955461;28;20070;-65
2023/02/20 00:22:24;;;;;;;10.03;5.87;;;;;;;-142.75;100.00;78432.91;4955330;28;19941;-66
2023/02/20 00:24:50;;;;;;;15.77;6.03;;;;;;;-142.75;100.00;78436.84;4954094;28;20027;-67
2023/02/20 00:27:15;;;;;;;;;;;;;;;-142.75;100.00;78427.00;4955603;28;20038;-67
2023/02/20 00:29:43;;;;;;;10.03;4.97;;;;;;;-142.75;100.00;78425.03;4953687;28;19910;-65
2023/02/20 00:32:08;;;;;;;15.60;6.33;;;;;;;-142.75;100.00;78432.91;4954984;28;20039;-64
2023/02/20 00:34:34;;;;;;;;;;;;;;;-142.75;100.00;78405.34;4955531;28;20437;-64
2023/02/20 00:36:59;;;;;;;21.80;6.67;;;;;;;-142.75;100.00;78413.22;4955159;28;21404;-65
2023/02/20 00:39:24;;;;;;;;;;;;;;;-142.75;100.00;78413.22;4955155;28;20473;-65
2023/02/20 00:41:49;;;;;;;15.10;6.73;;;;;;;-142.75;100.00;78409.28;4954901;28;19933;-65
2023/02/20 00:44:15;;;;;;;16.97;6.13;;;;;;;-142.75;100.00;78407.31;4953990;28;20027;-65
2023/02/20 00:46:40;;;;;;;;;;;;;;;-142.75;100.00;78405.34;4953540;28;20027;-66
2023/02/20 00:49:06;;;;;;;16.93;5.97;;;;;;;-142.75;100.00;78397.44;4954450;28;19910;-66
2023/02/20 00:51:32;;;;;;;;;;;;;;;-142.75;100.00;78389.56;4955144;28;20034;-65
2023/02/20 00:53:59;;;;;;;22.93;6.37;;;;;;;-142.75;100.00;78397.44;4954698;28;20036;-65
2023/02/20 00:56:24;;;;;;;18.30;8.67;;;;;;;-142.75;100.00;78399.44;4954659;28;20033;-65
2023/02/20 00:58:49;;;;;;;;;;;;;;;-142.75;100.00;78387.59;4954847;28;20118;-66
2023/02/20 01:01:15;;;;;;;18.67;7.07;;;;;;;-142.75;100.00;78373.81;4955048;28;20360;-65
2023/02/20 01:03:40;;;;;;;;;;;;;;;-142.75;100.00;78346.25;4974257;28;20034;-65
2023/02/20 01:06:06;;;;;;;20.03;7.70;;;;;;;-142.75;100.00;78338.38;4973671;28;19916;-66
2023/02/20 01:08:31;;;;;;;;;;;;;;;-142.75;100.00;78326.56;4973940;28;20030;-65
2023/02/20 01:10:56;;;;;;;24.10;8.50;;;;;;;-142.75;100.00;78314.75;4968100;28;19910;-64
2023/02/20 01:13:21;;;;;;;;;;;;;;;-142.75;100.00;78326.56;4970726;28;20023;-65
2023/02/20 01:15:47;;;;;;;21.67;8.83;;;;;;;-142.75;100.00;78326.56;4969108;28;19921;-66
2023/02/20 01:18:12;;;;;;;;;;;;;;;-142.75;100.00;78318.69;4967432;28;20019;-65
2023/02/20 01:20:37;;;;;;;20.97;9.30;;;;;;;-142.75;100.00;78328.53;4954974;28;20328;-67
2023/02/20 01:23:02;;;;;;;;;;;;;;;-142.75;100.00;78304.91;4953351;28;20027;-67
2023/02/20 01:25:28;;;;;;;30.17;10.10;;;;;;;-142.75;100.00;78306.88;4952957;28;19953;-67
2023/02/20 01:27:54;;;;;;;24.97;10.67;;;;;;;-142.75;100.00;78299.00;4953907;28;20027;-66
2023/02/20 01:30:20;;;;;;;34.13;11.73;;;;;;;-142.75;100.00;78287.16;4953929;28;20023;-66
2023/02/20 01:32:45;;;;;;;32.20;12.00;;;;;;;-142.75;100.00;78283.22;4953941;28;20098;-66
2023/02/20 01:35:10;;;;;;;30.27;11.37;;;;;;;-142.75;100.00;78269.44;4952827;28;20031;-65
2023/02/20 01:37:35;;;;;;;;;;;;;;;-142.75;100.00;78245.81;4954403;28;20034;-66
2023/02/20 01:40:02;;;;;;;28.27;12.50;;;;;;;-142.75;100.00;78243.84;4953690;28;19911;-65
2023/02/20 01:42:31;;;;;;;28.33;11.77;;;;;;;-142.75;100.00;78245.81;4952581;28;20391;-67
2023/02/20 01:45:28;;;;;;;28.67;12.93;;;;;;;-142.75;100.00;78239.91;4953681;28;20038;-65
2023/02/20 01:47:55;;;;;;;30.08;13.20;;;;;;;-142.75;100.00;78226.13;4953497;28;20027;-66
2023/02/20 01:50:26;;;;;;;29.03;13.13;;;;;;;-142.75;100.00;78222.19;4952251;28;20089;-66
2023/02/20 01:52:55;;;;;;;36.70;12.93;;;;;;;-142.75;100.00;78206.44;4952356;28;20063;-66
2023/02/20 01:55:21;;;;;;;33.40;12.73;;;;;;;-142.75;100.00;78198.56;4952251;28;20023;-65
2023/02/20 01:57:54;;;;;;;33.20;13.87;;;;;;;-142.75;100.00;78194.63;4953164;28;20015;-67
2023/02/20 02:00:23;;;;;;;32.10;13.87;;;;;;;-142.75;100.00;78184.78;4957744;28;20049;-66
2023/02/20 02:03:03;;;;;;;34.70;14.67;;;;;;;-142.75;100.00;78192.66;4971184;28;20417;-65
2023/02/20 02:05:32;;;;;;;37.40;15.13;;;;;;;-142.75;100.00;78196.59;4972172;28;20038;-66
2023/02/20 02:08:00;;;;;;;33.30;14.37;;;;;;;-142.75;100.00;78192.66;4972417;28;20034;-67
2023/02/20 02:10:54;;;;;;;37.60;14.27;;;;;;;-142.75;100.00;78192.66;4972461;28;20555;-65
2023/02/20 02:13:20;;;;;;;34.20;13.70;;;;;;;-142.75;100.00;78172.94;4967227;28;20121;-65
2023/02/20 02:15:49;;;;;;;37.57;14.83;;;;;;;-142.75;100.00;78172.94;4953211;28;20102;-67
2023/02/20 02:18:27;;;;;;;36.97;14.20;;;;;;;-142.75;100.00;78174.91;4952931;28;20032;-65
2023/02/20 02:21:01;;;;;;;39.73;16.10;;;;;;;-142.75;100.00;78163.09;4951991;28;20027;-65
2023/02/20 02:23:32;;;;;;;31.53;14.40;;;;;;;-142.75;100.00;78176.88;4951875;28;20035;-65
2023/02/20 02:26:16;;;;;;;29.10;13.93;;;;;;;-142.75;100.00;78165.06;4961224;28;20093;-64
2023/02/20 02:29:15;;;;;;;39.40;14.30;;;;;;;-142.75;100.00;78157.19;4970498;28;20403;-65
2023/02/20 02:32:19;;;;;;;32.63;14.33;;;;;;;-142.75;100.00;78131.59;4954499;28;20015;-66
2023/02/20 02:35:19;;;;;;;34.77;14.63;;;;;;;-142.75;100.00;78174.91;4950984;28;20058;-66
2023/02/20 02:38:03;;;;;;;32.87;15.30;;;;;;;-142.75;100.00;78155.22;4951572;28;20031;-65
2023/02/20 02:40:32;;;;;;;26.07;13.07;;;;;;;-142.75;100.00;78165.06;4951649;28;20015;-66
2023/02/20 02:43:15;;;;;;;45.57;15.20;;;;;;;-142.75;100.00;78155.22;4951385;28;20046;-65
2023/02/20 02:45:46;;;;;;;37.93;14.23;;;;;;;-142.75;100.00;78149.31;4952778;28;20026;-66
2023/02/20 02:48:35;;;;;;;38.53;14.10;;;;;;;-142.75;100.00;78141.44;4952662;28;20027;-66
2023/02/20 02:51:12;;;;;;;35.17;13.97;;;;;;;-142.75;100.00;78157.19;4952728;28;20485;-65
2023/02/20 02:53:37;;;;;;;;;;;;;;;-142.75;100.00;78153.25;4953155;28;20023;-66
2023/02/20 02:56:20;;;;;;;31.30;13.80;;;;;;;-142.75;100.00;78149.31;4952755;28;20433;-65
2023/02/20 02:58:47;;;;;;;40.20;13.63;;;;;;;-142.75;100.00;78137.50;4951218;28;20030;-65
2023/02/20 03:01:15;;;;;;;31.73;14.47;;;;;;;-142.75;100.00;78137.50;4952477;28;20114;-65
2023/02/20 03:03:43;;;;;;;34.13;14.50;;;;;;;-142.75;100.00;78123.72;4952650;28;20031;-66
2023/02/20 03:06:15;;;;;;;34.33;15.07;;;;;;;-142.75;100.00;78125.69;4952493;28;20023;-65
2023/02/20 03:08:55;;;;;;;33.47;14.27;;;;;;;-142.75;100.00;78121.75;4954285;28;20078;-66
2023/02/20 03:11:21;;;;;;;41.73;14.93;;;;;;;-142.75;100.00;78119.78;4956423;28;20106;-66
2023/02/20 03:17:02;;;;;;;41.93;15.97;;;;;;;-142.75;100.00;78092.22;4971992;28;20041;-66
2023/02/20 03:19:36;;;;;;;42.97;15.23;;;;;;;-142.75;100.00;78102.06;4966704;28;20027;-65
2023/02/20 03:22:08;;;;;;;34.90;14.70;;;;;;;-142.75;100.00;78094.19;4955885;28;20031;-67
2023/02/20 03:24:53;;;;;;;39.73;14.53;;;;;;;-142.75;100.00;78109.94;4956422;28;20047;-66
2023/02/20 03:27:23;;;;;;;36.00;15.65;;;;;;;-142.75;100.00;78098.13;4962417;28;20030;-65
2023/02/20 03:29:51;;;;;;;33.33;14.33;;;;;;;-142.75;100.00;78107.97;4975129;28;20031;-67
2023/02/20 03:43:20;;;;;;;33.47;15.97;;;;;;;-142.75;100.00;78080.41;4955535;28;20034;-66
2023/02/20 03:45:47;;;;;;;40.50;16.73;;;;;;;-142.75;100.00;78074.50;4955891;28;20023;-65
2023/02/20 03:48:21;;;;;;;43.67;16.07;;;;;;;-142.75;100.00;78078.44;4954482;28;20102;-65
2023/02/20 03:53:32;;;;;;;41.47;16.50;;;;;;;-142.75;100.00;78056.78;4959601;28;20069;-65
2023/02/20 03:56:01;;;;;;;46.50;17.57;;;;;;;-142.75;100.00;78054.81;4975050;28;20019;-66
2023/02/20 03:58:30;;;;;;;40.20;15.67;;;;;;;-142.75;100.00;78048.88;4974678;28;20023;-64
2023/02/20 04:00:59;;;;;;;40.07;16.50;;;;;;;-142.75;100.00;78042.97;4974882;28;20030;-66
2023/02/20 04:03:29;;;;;;;32.57;15.97;;;;;;;-142.75;100.00;78031.16;4974921;28;20026;-65
2023/02/20 04:05:57;;;;;;;38.80;16.83;;;;;;;-142.75;100.00;78050.84;4975333;28;20026;-65
2023/02/20 04:08:45;;;;;;;40.27;16.63;;;;;;;-142.75;100.00;78039.03;4955442;28;20027;-64
2023/02/20 04:11:21;;;;;;;41.77;14.23;;;;;;;-142.75;100.00;78044.94;4955456;28;20611;-66
2023/02/20 04:13:48;;;;;;;41.05;14.98;;;;;;;-142.75;100.00;78042.97;4955302;28;20030;-66
2023/02/20 04:16:14;;;;;;;41.50;15.17;;;;;;;-142.75;100.00;78050.84;4955432;28;20027;-65
2023/02/20 04:18:39;;;;;;;;;;;;;;;-142.75;100.00;78029.19;4955231;28;20094;-66
2023/02/20 04:21:15;;;;;;;31.53;13.00;;;;;;;-142.75;100.00;78041.00;4955294;28;19938;-66
2023/02/20 04:23:45;;;;;;;32.83;12.40;;;;;;;-142.75;100.00;78033.13;4962352;28;20559;-65
2023/02/20 04:26:18;;;;;;;34.97;12.63;;;;;;;-142.75;100.00;78039.03;4974403;28;20658;-65
2023/02/20 04:28:44;;;;;;;28.03;11.67;;;;;;;-142.75;100.00;78041.00;4960892;28;20559;-65
2023/02/20 04:31:12;;;;;;;;;;;;;;;-142.75;100.00;78027.22;4965636;28;20056;-65
2023/02/20 04:33:37;;;;;;;30.02;10.88;;;;;;;-142.75;100.00;78031.16;4955034;28;19965;-66
2023/02/20 04:36:03;;;;;;;;;;;;;;;-142.75;100.00;78039.03;4954330;28;20429;-63
2023/02/20 04:38:28;;;;;;;26.47;9.80;;;;;;;-142.75;100.00;78035.09;4969511;28;20277;-65
2023/02/20 04:40:54;;;;;;;24.80;10.30;;;;;;;-142.75;100.00;78041.00;4954952;28;20034;-67
2023/02/20 04:43:20;;;;;;;26.37;10.53;;;;;;;-142.75;100.00;78058.72;4967491;28;20065;-66
2023/02/20 04:45:45;;;;;;;;;;;;;;;-142.75;100.00;78048.88;4973352;28;20026;-66
2023/02/20 04:48:10;;;;;;;28.87;9.27;;;;;;;-142.75;100.00;78062.69;4972491;28;19914;-65
2023/02/20 04:50:35;;;;;;;23.77;7.97;;;;;;;-142.75;100.00;78046.91;4988895;28;20110;-64
2023/02/20 04:53:01;;;;;;;;;;;;;;;-142.75;100.00;78058.72;4971845;28;20106;-64
2023/02/20 04:55:27;;;;;;;19.20;9.07;;;;;;;-142.75;100.00;78056.78;4969550;28;19911;-64
2023/02/20 04:57:55;;;;;;;28.70;8.93;;;;;;;-142.75;100.00;78062.69;4954438;28;20118;-67
2023/02/20 05:00:21;;;;;;;21.67;9.77;;;;;;;-142.75;100.00;78062.69;4954574;28;20030;-65
2023/02/20 05:02:47;;;;;;;18.10;8.10;;;;;;;-142.75;100.00;78062.69;4954443;28;20023;-65
2023/02/20 05:05:24;;;;;;;21.93;8.67;;;;;;;-142.75;100.00;78042.97;4954626;28;20052;-65
2023/02/20 05:08:01;;;;;;;27.63;9.73;;;;;;;-142.75;100.00;78048.88;4954327;28;20030;-66
2023/02/20 05:10:27;;;;;;;20.07;7.87;;;;;;;-142.75;100.00;78044.94;4954406;28;20023;-65
2023/02/20 05:12:55;;;;;;;24.92;8.40;;;;;;;-142.75;100.00;78066.63;4954304;28;20495;-65
2023/02/20 05:15:20;;;;;;;18.58;8.35;;;;;;;-142.75;100.00;78060.72;4952967;28;20043;-65
2023/02/20 05:17:45;;;;;;;;;;;;;;;-142.75;100.00;78064.66;4954644;28;20104;-65
2023/02/20 05:20:16;;;;;;;26.20;8.00;;;;;;;-142.75;100.00;78060.72;4954436;28;19912;-65
2023/02/20 05:22:44;;;;;;;23.88;7.55;;;;;;;-142.75;100.00;78062.69;4968978;28;20074;-65
2023/02/20 05:25:09;;;;;;;17.27;7.43;;;;;;;-142.75;100.00;78066.63;4967772;28;20115;-66
2023/02/20 05:27:35;;;;;;;;;;;;;;;-142.75;100.00;78062.69;4960057;28;20466;-66
2023/02/20 05:30:01;;;;;;;29.27;8.17;;;;;;;-142.75;100.00;78074.50;4972877;28;19917;-66
2023/02/20 05:32:28;;;;;;;20.57;7.67;;;;;;;-142.75;100.00;78064.66;4972595;28;20019;-64
2023/02/20 05:34:54;;;;;;;31.40;8.23;;;;;;;-142.75;100.00;78080.41;4973311;28;20030;-65
2023/02/20 05:37:20;;;;;;;;;;;;;;;-142.75;100.00;78066.63;4988510;28;20031;-66
2023/02/20 05:39:46;;;;;;;29.77;7.63;;;;;;;-142.75;100.00;78068.59;4964230;28;19910;-65
2023/02/20 05:42:12;;;;;;;25.73;9.07;;;;;;;-142.75;100.00;78066.63;4953790;28;20048;-65
2023/02/20 05:44:37;;;;;;;19.33;7.78;;;;;;;-142.75;100.00;78088.28;4953794;28;20504;-66
2023/02/20 05:47:03;;;;;;;;;;;;;;;-142.75;100.00;78076.47;4954215;28;20141;-65
2023/02/20 05:49:28;;;;;;;23.53;7.33;;;;;;;-142.75;100.00;78066.63;4953587;28;20283;-64
2023/02/20 05:51:57;;;;;;;20.00;7.33;;;;;;;-142.75;100.00;78062.69;4953592;28;20105;-65
2023/02/20 05:54:23;;;;;;;21.93;8.00;;;;;;;-142.75;100.00;78062.69;4953616;28;20023;-66
2023/02/20 05:56:49;;;;;;;18.70;7.17;;;;;;;-142.75;100.00;78066.63;4953498;28;20023;-64
2023/02/20 05:59:19;;;;;;;22.15;7.68;;;;;;;-142.75;100.00;78074.50;4964825;28;20434;-65
2023/02/20 06:01:45;;;;;;;18.00;6.47;;;;;;;-142.75;100.00;78078.44;4972640;28;20447;-66
2023/02/20 06:04:10;;;;;;;;;;;;;;;-142.75;100.00;78066.63;4961288;28;20094;-67
2023/02/20 06:06:38;;;;;;;26.37;7.33;;;;;;;-142.75;100.00;78076.47;4953360;28;19920;-66
2023/02/20 06:09:06;;;;;;;23.40;6.20;;;;;;;-142.75;100.00;78084.34;4953098;28;20035;-66
2023/02/20 06:11:32;;;;;;;27.50;6.43;;;;;;;-142.75;100.00;78076.47;4980335;23;20411;-66
2023/02/20 06:13:57;;;;;;;;;;;;;;;-142.75;100.00;78068.59;4971769;28;20032;-66
2023/02/20 06:16:25;;;;;;;18.33;5.30;;;;;;;-142.75;100.00;78066.63;4971249;28;19910;-67
2023/02/20 06:18:51;;;;;;;24.00;6.70;;;;;;;-142.75;100.00;78076.47;4970910;28;20077;-66
2023/02/20 06:21:16;;;;;;;25.30;5.50;;;;;;;-142.75;100.00;78074.50;4972337;28;20029;-66
2023/02/20 06:23:42;;;;;;;;;;;;;;;-142.75;100.00;78066.63;4955241;28;20014;-66
2023/02/20 06:26:07;;;;;;;26.70;5.57;;;;;;;-142.75;100.00;78078.44;4954859;28;19917;-69
2023/02/20 06:28:33;;;;;;;26.33;6.17;;;;;;;-142.75;100.00;78088.28;4972003;28;20018;-66
2023/02/20 06:30:59;;;;;;;19.95;5.72;;;;;;;-142.75;100.00;78090.25;4972153;28;20018;-66
2023/02/20 06:33:25;;;;;;;26.92;6.47;;;;;;;-142.75;100.00;78076.47;4972152;28;20081;-67
2023/02/20 06:35:50;;;;;;;19.25;6.40;;;;;;;-142.75;100.00;78062.69;4972151;28;20073;-67
2023/02/20 06:38:15;;;;;;;15.73;5.70;;;;;;;-142.75;100.00;78082.38;4971962;28;20034;-66
2023/02/20 06:40:41;;;;;;;22.95;6.25;;;;;;;-142.75;100.00;78074.50;4971986;28;20019;-67
2023/02/20 06:43:06;;;;;;;17.65;5.43;;;;;;;-142.75;100.00;78080.41;4964746;28;20030;-67
2023/02/20 06:45:31;;;;;;;21.27;5.67;;;;;;;-142.75;100.00;78080.41;4971030;28;20105;-66
2023/02/20 06:47:57;;;;;;;;;;;;;;;-142.75;100.00;78084.34;4972313;28;20452;-67
2023/02/20 06:50:22;;;;;;;13.45;6.00;;;;;;;-142.75;100.00;78084.34;4971944;28;19909;-67
2023/02/20 06:52:47;;;;;;;14.00;5.68;;;;;;;-142.75;100.00;78078.44;4971796;28;20030;-67
2023/02/20 06:55:12;;;;;;;;;;;;;;;-142.75;100.00;78086.31;4972474;28;20057;-66
2023/02/20 06:57:38;;;;;;;20.57;5.57;;;;;;;-142.75;100.00;78084.34;4970496;28;20359;-66
2023/02/20 07:00:04;;;;;;;22.13;6.33;;;;;;;-142.75;100.00;78080.41;4971244;28;20097;-67
2023/02/20 07:02:29;;;;;;;24.00;6.53;;;;;;;-142.75;100.00;78094.19;4971764;28;20014;-67
2023/02/20 07:04:55;;;;;;;;;;;;;;;-142.75;100.00;78070.56;4957890;28;20471;-66
2023/02/20 07:07:20;;;;;;;18.83;5.77;;;;;;;-142.75;100.00;78086.31;4953505;28;19914;-66
2023/02/20 07:09:45;;;;;;;;;;;;;;;-142.75;100.00;78068.59;4954240;28;20027;-66
2023/02/20 07:12:11;;;;;;;18.27;5.00;;;;;;;-142.75;100.00;78070.56;4953258;28;20286;-68
2023/02/20 07:14:36;;;;;;;17.30;5.53;;;;;;;-142.75;100.00;78072.53;4971185;28;20030;-67
2023/02/20 07:17:01;;;;;;;21.50;5.87;;;;;;;-142.75;100.00;78076.47;4971274;28;20015;-66
2023/02/20 07:19:26;;;;;;;22.90;5.97;;;;;;;-142.75;100.00;78058.72;4971092;28;20034;-66
2023/02/20 07:21:52;;;;;;;19.10;5.50;;;;;;;-142.75;100.00;78070.56;4954320;28;20110;-67
2023/02/20 07:24:17;;;;;;;;;;;;;;;-142.75;100.00;78050.84;4972038;28;20387;-67
2023/02/20 07:26:42;;;;;;;26.37;6.57;;;;;;;-142.75;100.00;78066.63;4971868;28;20373;-67
2023/02/20 07:29:08;;;;;;;;;;;;;;;-142.75;100.00;78046.91;4971774;28;20033;-67
2023/02/20 07:31:33;;;;;;;27.40;5.50;;;;;;;-142.75;100.00;78058.72;4971540;28;19972;-67
2023/02/20 07:33:58;;;;;;;18.13;5.07;;;;;;;-142.75;100.00;78052.81;4971768;28;20054;-66
2023/02/20 07:36:24;;;;;;;20.42;5.50;;;;;;;-142.75;100.00;78056.78;4972087;28;20023;-66
2023/02/20 07:38:57;;;;;;;21.47;5.53;;;;;;;-142.75;100.00;78044.94;4971539;28;20464;-66
2023/02/20 07:41:24;;;;;;;25.87;6.00;;;;;;;-142.75;100.00;78048.88;4972170;28;20035;-66
2023/02/20 07:43:49;;;;;;;21.77;6.00;;;;;;;-142.75;100.00;78050.84;4971729;28;20044;-67
2023/02/20 07:46:16;;;;;;;20.63;5.40;;;;;;;-142.75;100.00;78042.97;4971498;28;20511;-67
2023/02/20 07:48:41;;;;;;;11.53;5.37;;;;;;;-142.75;100.00;78046.91;4970947;28;20022;-66
2023/02/20 07:51:06;;;;;;;20.50;6.47;;;;;;;-142.75;100.00;78050.84;4971039;28;20624;-66
2023/02/20 07:53:31;;;;;;;;;;;;;;;-142.75;100.00;78035.09;4971618;28;20089;-66
2023/02/20 07:55:57;;;;;;;26.05;6.05;;;;;;;-142.75;100.00;78039.03;4975059;28;19918;-66
2023/02/20 07:58:23;;;;;;;17.90;6.35;;;;;;;-142.75;100.00;78029.19;4954543;28;20027;-66
2023/02/20 08:00:50;;;;;;;18.43;6.87;;;;;;;-142.75;100.00;78039.03;4973278;28;20090;-66
2023/02/20 08:03:16;;;;;;;26.80;7.33;;;;;;;-142.75;100.00;78023.28;4973979;28;20097;-66
2023/02/20 08:05:42;;;;;;;23.63;6.80;;;;;;;-142.75;100.00;78039.03;4974157;28;20031;-66
2023/02/20 08:08:07;;;;;;;20.45;6.55;;;;;;;-142.75;100.00;78039.03;4973828;28;20030;-66
2023/02/20 08:10:32;;;;;;;;;;;;;;;-142.75;100.00;78023.28;4974460;28;20031;-66
2023/02/20 08:12:57;;;;;;;24.80;7.03;;;;;;;-142.75;100.00;78019.34;4973971;28;19953;-67
2023/02/20 08:15:23;;;;;;;20.85;6.43;;;;;;;-142.75;100.00;78019.34;4973716;28;20025;-67
2023/02/20 08:17:48;;;;;;;21.15;7.00;;;;;;;-142.75;100.00;78021.31;4973848;28;20396;-66
2023/02/20 08:20:15;;;;;;;;;;;;;;;-142.75;100.00;78025.25;4974169;28;20461;-66
2023/02/20 08:22:40;;;;;;;24.02;6.30;;;;;;;-142.75;100.00;78023.28;4973753;28;19932;-66
2023/02/20 08:25:06;;;;;;;25.00;7.40;;;;;;;-142.75;100.00;78025.25;4973930;28;20023;-67
2023/02/20 08:27:31;;;;;;;;;;;;;;;-142.75;100.00;78013.44;4974185;28;20315;-66
2023/02/20 08:29:57;;;;;;;18.70;6.05;;;;;;;-142.75;100.00;78015.41;4973459;28;19914;-67
2023/02/20 08:32:23;;;;;;;19.25;6.97;;;;;;;-142.75;100.00;78015.41;4973606;28;20122;-66
2023/02/20 08:34:48;;;;;;;;;;;;;;;-142.75;100.00;78021.31;4974077;28;20426;-66
2023/02/20 08:37:13;;;;;;;19.13;7.55;;;;;;;-142.75;100.00;78041.00;4975211;28;19910;-66
2023/02/20 08:39:39;;;;;;;16.35;8.00;;;;;;;-142.75;100.00;78041.00;4972648;28;20027;-66
2023/02/20 08:42:05;;;;;;;26.45;7.70;;;;;;;-142.75;100.00;78035.09;4973319;28;20165;-65
2023/02/20 08:44:31;;;;;;;20.30;7.88;;;;;;;-142.75;100.00;78023.28;4973505;28;20136;-66
2023/02/20 08:46:56;;;;;;;26.50;7.82;;;;;;;-142.75;100.00;78017.38;4973841;28;20014;-66
2023/02/20 08:49:21;;;;;;;21.30;8.90;;;;;;;-142.75;100.00;78031.16;4973346;28;20031;-66
2023/02/20 08:51:47;;;;;;;;;;;;;;;-142.75;100.00;78007.53;4974094;28;20042;-66
2023/02/20 08:54:14;;;;;;;21.95;7.05;;;;;;;-142.75;100.00;78015.41;4973777;28;19917;-66
2023/02/20 08:56:40;;;;;;;23.55;7.50;;;;;;;-142.75;100.00;78015.41;4973290;28;20022;-66
2023/02/20 08:59:06;;;;;;;16.70;7.07;;;;;;;-142.75;100.00;78019.34;4971540;28;20102;-67
2023/02/20 09:01:31;;;;;;;25.77;8.30;;;;;;;-142.75;100.00;78011.47;4971929;28;20444;-66
2023/02/20 09:03:57;;;;;;;22.10;8.48;;;;;;;-142.75;100.00;78003.59;4971603;28;20038;-67
2023/02/20 09:06:24;;;;;;;24.63;7.38;;;;;;;-142.75;100.00;78001.63;4970381;28;20029;-67
2023/02/20 09:08:51;;;;;;;18.27;7.18;;;;;;;-142.75;100.00;78003.59;4953991;28;20384;-66
2023/02/20 09:11:16;;;;;;;26.55;6.93;;;;;;;-142.75;100.00;77987.84;4972544;28;20053;-67
2023/02/20 09:13:43;;;;;;;19.65;7.03;;;;;;;-142.75;100.00;77997.69;4971872;28;20476;-67
2023/02/20 09:16:10;;;;;;;20.80;7.80;;;;;;;-142.75;100.00;77979.97;4972147;28;20050;-68
2023/02/20 09:18:35;;;;;;;18.60;7.53;;;;;;;-142.75;100.00;77983.91;4972268;28;20069;-66
2023/02/20 09:21:00;;;;;;;18.25;7.20;;;;;;;-142.75;100.00;77978.00;4954579;28;20065;-66
2023/02/20 09:23:26;;;;;;;17.85;6.10;;;;;;;-142.75;100.00;77983.91;4971906;28;20030;-67
2023/02/20 09:25:52;;;;;;;;;;;;;;;-142.75;100.00;77981.94;4972097;28;20018;-67
2023/02/20 09:28:17;;;;;;;19.27;6.28;;;;;;;-142.75;100.00;77989.81;4978496;28;19918;-69
2023/02/20 09:30:43;;;;;;;14.85;6.70;;;;;;;-142.75;100.00;77999.66;4971534;28;20033;-69
2023/02/20 09:33:08;;;;;;;;;;;;;;;-142.75;100.00;77983.91;4972467;28;20026;-68
2023/02/20 09:35:33;;;;;;;20.17;6.22;;;;;;;-142.75;100.00;78011.47;4972205;28;19952;-68
2023/02/20 09:38:00;;;;;;;19.30;6.28;;;;;;;-142.75;100.00;78007.53;4971892;28;20023;-68
2023/02/20 09:40:28;;;;;;;11.45;4.95;;;;;;;-142.75;100.00;77995.72;4971952;28;20073;-65
2023/02/20 09:43:36;;;;;;;15.48;5.65;;;;;;;-142.75;100.00;77995.72;4971907;28;20467;-66
2023/02/20 09:46:19;;;;;;;15.63;6.63;;;;;;;-142.75;100.00;77985.88;4971558;28;20476;-66
2023/02/20 09:49:09;;;;;;;14.70;5.90;;;;;;;-142.75;100.00;77995.72;4972416;28;20266;-66
2023/02/20 09:51:38;;;;;;;15.80;7.07;;;;;;;-142.75;100.00;77979.97;4972303;28;20054;-66
2023/02/20 09:54:16;;;;;;;15.43;6.57;;;;;;;-142.75;100.00;77997.69;4971424;28;20093;-67
2023/02/20 09:56:48;;;;;;;16.90;6.50;;;;;;;-142.75;100.00;77995.72;4971075;28;20034;-66
2023/02/20 09:59:36;;;;;;;12.77;5.70;;;;;;;-142.75;100.00;77995.72;4954721;28;20033;-67
2023/02/20 10:02:13;;;;;;;14.27;6.78;;;;;;;-142.75;100.00;77987.84;4971796;28;20022;-67
2023/02/20 10:04:44;;;;;;;15.57;6.82;;;;;;;-142.75;100.00;77987.84;4971771;28;20472;-67
2023/02/20 10:07:22;;;;;;;13.90;6.47;;;;;;;-142.75;100.00;77997.69;4971422;28;20019;-67
2023/02/20 10:09:48;;;;;;;11.63;6.32;;;;;;;-142.75;100.00;77987.84;4971183;28;20386;-67
2023/02/20 10:12:28;;;;;;;;;;;;;;;-142.75;100.00;77987.84;4936336;28;1052363;-67
2023/02/20 10:15:03;;;;;;;20.02;6.65;;;;;;;-142.75;100.00;77991.78;4971165;28;19988;-67
2023/02/20 10:17:50;;;;;;;14.10;5.90;;;;;;;-142.75;100.00;77972.09;4972073;28;20022;-67
2023/02/20 10:20:24;;;;;;;;;;;;;;;-142.75;100.00;77976.03;4972506;28;20061;-67
2023/02/20 10:22:58;;;;;;;14.77;5.32;;;;;;;-142.75;100.00;77985.88;4971173;28;19910;-67
2023/02/20 10:25:44;;;;;;;12.20;5.45;;;;;;;-142.75;100.00;77989.81;4972099;28;20035;-67
2023/02/20 10:28:14;;;;;;;10.75;6.05;;;;;;;-142.75;100.00;77995.72;4971956;28;20019;-67
2023/02/20 10:30:43;;;;;;;12.85;5.95;;;;;;;-142.75;100.00;77995.72;4971936;28;20022;-67
2023/02/20 10:33:08;;;;;;;11.75;5.97;;;;;;;-142.75;100.00;77991.78;4971882;28;20033;-67
2023/02/20 10:35:45;;;;;;;13.82;6.13;;;;;;;-142.75;100.00;77997.69;4954593;28;20031;-67
2023/02/20 10:38:14;;;;;;;11.60;5.45;;;;;;;-142.75;100.00;77987.84;4971739;28;20468;-67
2023/02/20 10:40:39;;;;;;;12.27;6.18;;;;;;;-142.75;100.00;77987.84;4971892;28;20023;-67
2023/02/20 10:43:16;;;;;;;14.02;6.10;;;;;;;-142.75;100.00;77979.97;4971796;28;20081;-67
2023/02/20 10:46:06;;;;;;;10.68;5.88;;;;;;;-142.75;100.00;77983.91;4971915;28;21282;-67
2023/02/20 10:48:34;;;;;;;12.30;5.97;;;;;;;-142.75;100.00;77997.69;4971504;28;20411;-67
2023/02/20 10:51:08;;;;;;;14.95;5.88;;;;;;;-142.75;100.00;77997.69;4971686;28;20077;-67
2023/02/20 10:53:48;;;;;;;15.52;5.60;;;;;;;-142.75;100.00;77970.13;4971807;28;20566;-67
2023/02/20 10:56:37;;;;;;;21.65;7.00;;;;;;;-142.75;100.00;77993.75;4971803;28;20411;-66
2023/02/20 10:59:07;;;;;;;17.50;5.65;;;;;;;-142.75;100.00;77960.28;4971437;28;20480;-67
2023/02/20 11:01:36;;;;;;;10.13;4.95;;;;;;;-142.75;100.00;77981.94;4954079;28;20033;-67
2023/02/20 11:04:08;;;;;;;14.38;5.47;;;;;;;-142.75;100.00;77991.78;4971466;28;20027;-67
2023/02/20 11:06:56;;;;;;;12.80;4.43;;;;;;;-142.75;100.00;77972.09;4971537;28;20031;-66
2023/02/20 11:09:24;;;;;;;12.50;5.03;;;;;;;-142.75;100.00;77970.13;4971242;28;20089;-67
2023/02/20 11:11:52;;;;;;;11.63;4.28;;;;;;;-142.75;100.00;77948.47;4971319;28;20487;-67
2023/02/20 11:14:25;;;;;;;12.77;4.28;;;;;;;-142.75;100.00;77936.66;4971485;28;20101;-67
2023/02/20 11:16:57;;;;;;;15.27;5.22;;;;;;;-142.75;100.00;77944.53;4971537;28;20067;-67
2023/02/20 11:19:35;;;;;;;13.45;4.35;;;;;;;-142.75;100.00;77944.53;4971045;28;20097;-67
2023/02/20 11:22:01;;;;;;;13.25;4.22;;;;;;;-142.75;100.00;77956.34;4971413;28;20030;-67
2023/02/20 11:24:38;;;;;;;12.98;3.85;;;;;;;-142.75;100.00;77932.72;4971468;28;20038;-67
2023/02/20 11:27:14;;;;;;;12.77;4.50;;;;;;;-142.75;100.00;77928.78;4971219;28;20019;-67
2023/02/20 11:29:47;;;;;;;8.07;3.53;;;;;;;-142.75;100.00;77907.09;4973054;28;20019;-67
2023/02/20 11:32:32;;;;;;;17.60;3.85;;;;;;;-142.75;100.00;77891.34;4975195;28;20038;-67
2023/02/20 11:35:15;;;;;;;11.68;4.22;;;;;;;-142.75;100.00;77850.00;4974952;28;20030;-67